Time;durP1;ratioP1;P1;durP2;ratioP2;P2;SDS_P1;SDS_P2;PMS_P1;PMS_P2;Temp;Humidity;BMP_temperature;BMP_pressure;BME280_temperature;BME280_humidity;BME280_pressure;Samples;Min_cycle;Max_cycle;Signal;HPM_P1;HPM_P2
2022/06/25 00:00:11;;;;;;;1.8;1.4;;;;;;;15.03;94.00488;95146.47;;;;
2022/06/25 00:01:13;;;;;;;1.8;1.4;;;;;;;15.03;94.00488;95146.47;;;;
2022/06/25 00:02:14;;;;;;;1.8;1.4;;;;;;;15.03;94.00488;95146.47;;;;
2022/06/25 00:03:15;;;;;;;1.8;1.4;;;;;;;15.03;94.00488;95146.47;;;;
2022/06/25 00:09:29;;;;;;;1.5;1.3;;;;;;;15.04;94.20215;95158.34;;;;
2022/06/25 00:10:30;;;;;;;1.5;1.3;;;;;;;15.04;94.20215;95158.34;;;;
2022/06/25 00:12:36;;;;;;;1.5;1.3;;;;;;;15.04;94.20215;95158.34;;;;
2022/06/25 00:13:36;;;;;;;1.5;1.3;;;;;;;15.04;94.20215;95158.34;;;;
2022/06/25 00:14:37;;;;;;;1.5;1.3;;;;;;;15.04;94.20215;95158.34;;;;
2022/06/25 00:15:38;;;;;;;1.5;1.3;;;;;;;15.04;94.20215;95158.34;;;;
2022/06/25 00:16:38;;;;;;;1.5;1.3;;;;;;;15.04;94.20215;95158.34;;;;
2022/06/25 00:17:39;;;;;;;1.5;1.3;;;;;;;15.04;94.20215;95158.34;;;;
2022/06/25 00:18:40;;;;;;;1.4;1.3;;;;;;;14.97;94.1748;95160.35;;;;
2022/06/25 00:19:40;;;;;;;1.4;1.3;;;;;;;14.97;94.1748;95160.35;;;;
2022/06/25 00:20:40;;;;;;;1.4;1.3;;;;;;;14.97;94.1748;95160.35;;;;
2022/06/25 00:21:42;;;;;;;1.4;1.3;;;;;;;14.97;94.1748;95160.35;;;;
2022/06/25 00:22:42;;;;;;;1.4;1.3;;;;;;;14.97;94.1748;95160.35;;;;
2022/06/25 00:23:43;;;;;;;1.4;1.3;;;;;;;14.97;94.1748;95160.35;;;;
2022/06/25 00:24:43;;;;;;;1.4;1.3;;;;;;;14.97;94.1748;95160.35;;;;
2022/06/25 00:25:44;;;;;;;1.4;1.3;;;;;;;14.97;94.1748;95160.35;;;;
2022/06/25 00:26:44;;;;;;;1.4;1.3;;;;;;;14.97;94.1748;95160.35;;;;
2022/06/25 00:27:45;;;;;;;1.4;1.3;;;;;;;14.97;94.1748;95160.35;;;;
2022/06/25 00:28:45;;;;;;;1.3;1.2;;;;;;;14.98;94.41504;95158.37;;;;
2022/06/25 00:29:46;;;;;;;1.3;1.2;;;;;;;14.98;94.41504;95158.37;;;;
2022/06/25 00:30:47;;;;;;;1.3;1.2;;;;;;;14.98;94.41504;95158.37;;;;
2022/06/25 00:31:47;;;;;;;1.3;1.2;;;;;;;14.98;94.41504;95158.37;;;;
2022/06/25 00:32:48;;;;;;;1.3;1.2;;;;;;;14.98;94.41504;95158.37;;;;
2022/06/25 00:33:49;;;;;;;1.3;1.2;;;;;;;14.98;94.41504;95158.37;;;;
2022/06/25 00:34:49;;;;;;;1.3;1.2;;;;;;;14.98;94.41504;95158.37;;;;
2022/06/25 00:35:50;;;;;;;1.3;1.2;;;;;;;14.98;94.41504;95158.37;;;;
2022/06/25 00:36:51;;;;;;;1.3;1.2;;;;;;;14.98;94.41504;95158.37;;;;
2022/06/25 00:37:51;;;;;;;1.3;1.2;;;;;;;14.98;94.41504;95158.37;;;;
2022/06/25 00:38:52;;;;;;;1.3;1.2;;;;;;;14.98;94.41504;95158.37;;;;
2022/06/25 00:39:52;;;;;;;2.35;1.5;;;;;;;14.96;94.3916;95154.24;;;;
2022/06/25 00:40:53;;;;;;;2.35;1.5;;;;;;;14.96;94.3916;95154.24;;;;
2022/06/25 00:41:53;;;;;;;2.35;1.5;;;;;;;14.96;94.3916;95154.24;;;;
2022/06/25 00:42:54;;;;;;;2.35;1.5;;;;;;;14.96;94.3916;95154.24;;;;
2022/06/25 00:43:54;;;;;;;2.35;1.5;;;;;;;14.96;94.3916;95154.24;;;;
2022/06/25 00:44:55;;;;;;;2.35;1.5;;;;;;;14.96;94.3916;95154.24;;;;
2022/06/25 00:45:56;;;;;;;2.35;1.5;;;;;;;14.96;94.3916;95154.24;;;;
2022/06/25 00:46:56;;;;;;;2.35;1.5;;;;;;;14.96;94.3916;95154.24;;;;
2022/06/25 00:47:57;;;;;;;2.35;1.5;;;;;;;14.96;94.3916;95154.24;;;;
2022/06/25 00:48:57;;;;;;;2.35;1.5;;;;;;;14.96;94.3916;95154.24;;;;
2022/06/25 00:49:57;;;;;;;2.35;1.5;;;;;;;14.96;94.3916;95154.24;;;;
2022/06/25 00:50:58;;;;;;;1.6;1.5;;;;;;;15;94.5918;95151.87;;;;
2022/06/25 00:52:01;;;;;;;1.6;1.5;;;;;;;15;94.5918;95151.87;;;;
2022/06/25 00:53:07;;;;;;;1.6;1.5;;;;;;;15;94.5918;95151.87;;;;
2022/06/25 00:54:10;;;;;;;1.6;1.5;;;;;;;15;94.5918;95151.87;;;;
2022/06/25 00:55:11;;;;;;;1.6;1.5;;;;;;;15;94.5918;95151.87;;;;
2022/06/25 00:56:12;;;;;;;1.6;1.5;;;;;;;15;94.5918;95151.87;;;;
2022/06/25 00:57:14;;;;;;;1.6;1.5;;;;;;;15;94.5918;95151.87;;;;
2022/06/25 00:58:19;;;;;;;1.6;1.5;;;;;;;15;94.5918;95151.87;;;;
2022/06/25 00:59:23;;;;;;;1.6;1.5;;;;;;;15;94.5918;95151.87;;;;
2022/06/25 01:00:27;;;;;;;1.6;1.5;;;;;;;15;94.5918;95151.87;;;;
2022/06/25 01:01:28;;;;;;;1.75;1.3;;;;;;;14.94;94.52539;95143.94;;;;
2022/06/25 01:02:30;;;;;;;1.75;1.3;;;;;;;14.94;94.52539;95143.94;;;;
2022/06/25 01:03:30;;;;;;;1.75;1.3;;;;;;;14.94;94.52539;95143.94;;;;
2022/06/25 01:04:31;;;;;;;1.75;1.3;;;;;;;14.94;94.52539;95143.94;;;;
2022/06/25 01:05:31;;;;;;;1.75;1.3;;;;;;;14.94;94.52539;95143.94;;;;
2022/06/25 01:06:32;;;;;;;1.75;1.3;;;;;;;14.94;94.52539;95143.94;;;;
2022/06/25 01:07:34;;;;;;;1.75;1.3;;;;;;;14.94;94.52539;95143.94;;;;
2022/06/25 01:08:36;;;;;;;1.75;1.3;;;;;;;14.94;94.52539;95143.94;;;;
2022/06/25 01:09:37;;;;;;;1.75;1.3;;;;;;;14.94;94.52539;95143.94;;;;
2022/06/25 01:10:38;;;;;;;1.75;1.3;;;;;;;14.94;94.52539;95143.94;;;;
2022/06/25 01:11:38;;;;;;;1.8;1.3;;;;;;;14.95;94.65918;95134.38;;;;
2022/06/25 01:12:39;;;;;;;1.8;1.3;;;;;;;14.95;94.65918;95134.38;;;;
2022/06/25 01:13:40;;;;;;;1.8;1.3;;;;;;;14.95;94.65918;95134.38;;;;
2022/06/25 01:14:41;;;;;;;1.8;1.3;;;;;;;14.95;94.65918;95134.38;;;;
2022/06/25 01:15:41;;;;;;;1.8;1.3;;;;;;;14.95;94.65918;95134.38;;;;
2022/06/25 01:16:43;;;;;;;1.8;1.3;;;;;;;14.95;94.65918;95134.38;;;;
2022/06/25 01:17:44;;;;;;;1.8;1.3;;;;;;;14.95;94.65918;95134.38;;;;
2022/06/25 01:18:47;;;;;;;1.8;1.3;;;;;;;14.95;94.65918;95134.38;;;;
2022/06/25 01:19:48;;;;;;;1.8;1.3;;;;;;;14.95;94.65918;95134.38;;;;
2022/06/25 01:20:48;;;;;;;1.8;1.3;;;;;;;14.95;94.65918;95134.38;;;;
2022/06/25 01:21:49;;;;;;;1.8;1.3;;;;;;;14.95;94.65918;95134.38;;;;
2022/06/25 01:22:49;;;;;;;1.7;1.6;;;;;;;14.92;94.5752;95135.8;;;;
2022/06/25 01:23:50;;;;;;;1.7;1.6;;;;;;;14.92;94.5752;95135.8;;;;
2022/06/25 01:24:52;;;;;;;1.7;1.6;;;;;;;14.92;94.5752;95135.8;;;;
2022/06/25 01:25:53;;;;;;;1.7;1.6;;;;;;;14.92;94.5752;95135.8;;;;
2022/06/25 01:26:53;;;;;;;1.7;1.6;;;;;;;14.92;94.5752;95135.8;;;;
2022/06/25 01:27:54;;;;;;;1.7;1.6;;;;;;;14.92;94.5752;95135.8;;;;
2022/06/25 01:28:54;;;;;;;1.7;1.6;;;;;;;14.92;94.5752;95135.8;;;;
2022/06/25 01:29:55;;;;;;;1.7;1.6;;;;;;;14.92;94.5752;95135.8;;;;
2022/06/25 01:30:55;;;;;;;1.7;1.6;;;;;;;14.92;94.5752;95135.8;;;;
2022/06/25 01:31:56;;;;;;;1.7;1.6;;;;;;;14.92;94.5752;95135.8;;;;
2022/06/25 01:32:56;;;;;;;1.7;1.6;;;;;;;14.96;94.74805;95139.59;;;;
2022/06/25 01:33:57;;;;;;;1.7;1.6;;;;;;;14.96;94.74805;95139.59;;;;
2022/06/25 01:34:58;;;;;;;1.7;1.6;;;;;;;14.96;94.74805;95139.59;;;;
2022/06/25 01:35:59;;;;;;;1.7;1.6;;;;;;;14.96;94.74805;95139.59;;;;
2022/06/25 01:36:59;;;;;;;1.7;1.6;;;;;;;14.96;94.74805;95139.59;;;;
2022/06/25 01:38:00;;;;;;;1.7;1.6;;;;;;;14.96;94.74805;95139.59;;;;
2022/06/25 01:39:00;;;;;;;1.7;1.6;;;;;;;14.96;94.74805;95139.59;;;;
2022/06/25 01:40:01;;;;;;;1.7;1.6;;;;;;;14.96;94.74805;95139.59;;;;
2022/06/25 01:41:02;;;;;;;1.7;1.6;;;;;;;14.96;94.74805;95139.59;;;;
2022/06/25 01:42:03;;;;;;;1.7;1.6;;;;;;;14.96;94.74805;95139.59;;;;
2022/06/25 01:43:04;;;;;;;1.7;1.6;;;;;;;14.96;94.74805;95139.59;;;;
2022/06/25 01:44:04;;;;;;;1.4;1.3;;;;;;;14.93;94.67676;95136.47;;;;
2022/06/25 01:45:05;;;;;;;1.4;1.3;;;;;;;14.93;94.67676;95136.47;;;;
2022/06/25 01:46:06;;;;;;;1.4;1.3;;;;;;;14.93;94.67676;95136.47;;;;
2022/06/25 01:47:07;;;;;;;1.4;1.3;;;;;;;14.93;94.67676;95136.47;;;;
2022/06/25 01:48:07;;;;;;;1.4;1.3;;;;;;;14.93;94.67676;95136.47;;;;
2022/06/25 01:49:08;;;;;;;1.4;1.3;;;;;;;14.93;94.67676;95136.47;;;;
2022/06/25 01:50:08;;;;;;;1.4;1.3;;;;;;;14.93;94.67676;95136.47;;;;
2022/06/25 01:51:10;;;;;;;1.4;1.3;;;;;;;14.93;94.67676;95136.47;;;;
2022/06/25 01:52:11;;;;;;;1.4;1.3;;;;;;;14.93;94.67676;95136.47;;;;
2022/06/25 01:53:12;;;;;;;1.4;1.3;;;;;;;14.93;94.67676;95136.47;;;;
2022/06/25 01:54:13;;;;;;;2.15;1.5;;;;;;;14.95;94.78711;95140.22;;;;
2022/06/25 01:55:14;;;;;;;2.15;1.5;;;;;;;14.95;94.78711;95140.22;;;;
2022/06/25 01:56:15;;;;;;;2.15;1.5;;;;;;;14.95;94.78711;95140.22;;;;
2022/06/25 01:57:16;;;;;;;2.15;1.5;;;;;;;14.95;94.78711;95140.22;;;;
2022/06/25 01:58:16;;;;;;;2.15;1.5;;;;;;;14.95;94.78711;95140.22;;;;
2022/06/25 01:59:17;;;;;;;2.15;1.5;;;;;;;14.95;94.78711;95140.22;;;;
2022/06/25 02:00:18;;;;;;;2.15;1.5;;;;;;;14.95;94.78711;95140.22;;;;
2022/06/25 02:01:22;;;;;;;2.15;1.5;;;;;;;14.95;94.78711;95140.22;;;;
2022/06/25 02:02:22;;;;;;;2.15;1.5;;;;;;;14.95;94.78711;95140.22;;;;
2022/06/25 02:03:23;;;;;;;2.15;1.5;;;;;;;14.95;94.78711;95140.22;;;;
2022/06/25 02:04:24;;;;;;;2.15;1.5;;;;;;;14.95;94.78711;95140.22;;;;
2022/06/25 02:05:56;;;;;;;2.2;1.5;;;;;;;14.89;94.7334;95139.34;;;;
2022/06/25 02:06:57;;;;;;;2.2;1.5;;;;;;;14.89;94.7334;95139.34;;;;
2022/06/25 02:07:58;;;;;;;2.2;1.5;;;;;;;14.89;94.7334;95139.34;;;;
2022/06/25 02:08:59;;;;;;;2.2;1.5;;;;;;;14.89;94.7334;95139.34;;;;
2022/06/25 02:09:59;;;;;;;2.2;1.5;;;;;;;14.89;94.7334;95139.34;;;;
2022/06/25 02:11:00;;;;;;;2.2;1.5;;;;;;;14.89;94.7334;95139.34;;;;
2022/06/25 02:12:02;;;;;;;2.2;1.5;;;;;;;14.89;94.7334;95139.34;;;;
2022/06/25 02:13:03;;;;;;;2.2;1.5;;;;;;;14.89;94.7334;95139.34;;;;
2022/06/25 02:14:04;;;;;;;2.2;1.5;;;;;;;14.89;94.7334;95139.34;;;;
2022/06/25 02:15:05;;;;;;;2.2;1.5;;;;;;;14.89;94.7334;95139.34;;;;
2022/06/25 02:16:06;;;;;;;1.7;1.6;;;;;;;14.9;94.90625;95140.55;;;;
2022/06/25 02:17:07;;;;;;;1.7;1.6;;;;;;;14.9;94.90625;95140.55;;;;
2022/06/25 02:18:08;;;;;;;1.7;1.6;;;;;;;14.9;94.90625;95140.55;;;;
2022/06/25 02:19:09;;;;;;;1.7;1.6;;;;;;;14.9;94.90625;95140.55;;;;
2022/06/25 02:20:09;;;;;;;1.7;1.6;;;;;;;14.9;94.90625;95140.55;;;;
2022/06/25 02:21:11;;;;;;;1.7;1.6;;;;;;;14.9;94.90625;95140.55;;;;
2022/06/25 02:22:14;;;;;;;1.7;1.6;;;;;;;14.9;94.90625;95140.55;;;;
2022/06/25 02:23:15;;;;;;;1.7;1.6;;;;;;;14.9;94.90625;95140.55;;;;
2022/06/25 02:24:17;;;;;;;1.7;1.6;;;;;;;14.9;94.90625;95140.55;;;;
2022/06/25 02:25:18;;;;;;;1.7;1.6;;;;;;;14.9;94.90625;95140.55;;;;
2022/06/25 02:26:18;;;;;;;2.05;1.45;;;;;;;14.84;94.83008;95149.91;;;;
2022/06/25 02:27:19;;;;;;;2.05;1.45;;;;;;;14.84;94.83008;95149.91;;;;
2022/06/25 02:28:19;;;;;;;2.05;1.45;;;;;;;14.84;94.83008;95149.91;;;;
2022/06/25 02:29:20;;;;;;;2.05;1.45;;;;;;;14.84;94.83008;95149.91;;;;
2022/06/25 02:30:20;;;;;;;2.05;1.45;;;;;;;14.84;94.83008;95149.91;;;;
2022/06/25 02:31:21;;;;;;;2.05;1.45;;;;;;;14.84;94.83008;95149.91;;;;
2022/06/25 02:32:22;;;;;;;2.05;1.45;;;;;;;14.84;94.83008;95149.91;;;;
2022/06/25 02:33:22;;;;;;;2.05;1.45;;;;;;;14.84;94.83008;95149.91;;;;
2022/06/25 02:34:23;;;;;;;2.05;1.45;;;;;;;14.84;94.83008;95149.91;;;;
2022/06/25 02:35:23;;;;;;;2.05;1.45;;;;;;;14.84;94.83008;95149.91;;;;
2022/06/25 02:36:24;;;;;;;2.05;1.45;;;;;;;14.84;94.83008;95149.91;;;;
2022/06/25 02:37:24;;;;;;;1.85;1.6;;;;;;;14.84;95.00195;95156.56;;;;
2022/06/25 02:38:25;;;;;;;1.85;1.6;;;;;;;14.84;95.00195;95156.56;;;;
2022/06/25 02:39:25;;;;;;;1.85;1.6;;;;;;;14.84;95.00195;95156.56;;;;
2022/06/25 02:40:26;;;;;;;1.85;1.6;;;;;;;14.84;95.00195;95156.56;;;;
2022/06/25 02:41:26;;;;;;;1.85;1.6;;;;;;;14.84;95.00195;95156.56;;;;
2022/06/25 02:42:27;;;;;;;1.85;1.6;;;;;;;14.84;95.00195;95156.56;;;;
2022/06/25 02:43:32;;;;;;;1.85;1.6;;;;;;;14.84;95.00195;95156.56;;;;
2022/06/25 02:44:33;;;;;;;1.85;1.6;;;;;;;14.84;95.00195;95156.56;;;;
2022/06/25 02:45:33;;;;;;;1.85;1.6;;;;;;;14.84;95.00195;95156.56;;;;
2022/06/25 02:46:34;;;;;;;1.85;1.6;;;;;;;14.84;95.00195;95156.56;;;;
2022/06/25 02:47:34;;;;;;;1.55;1.45;;;;;;;14.78;94.9668;95162.04;;;;
2022/06/25 02:48:35;;;;;;;1.55;1.45;;;;;;;14.78;94.9668;95162.04;;;;
2022/06/25 02:49:36;;;;;;;1.55;1.45;;;;;;;14.78;94.9668;95162.04;;;;
2022/06/25 02:50:36;;;;;;;1.55;1.45;;;;;;;14.78;94.9668;95162.04;;;;
2022/06/25 02:51:37;;;;;;;1.55;1.45;;;;;;;14.78;94.9668;95162.04;;;;
2022/06/25 02:52:37;;;;;;;1.55;1.45;;;;;;;14.78;94.9668;95162.04;;;;
2022/06/25 02:53:38;;;;;;;1.55;1.45;;;;;;;14.78;94.9668;95162.04;;;;
2022/06/25 02:54:39;;;;;;;1.55;1.45;;;;;;;14.78;94.9668;95162.04;;;;
2022/06/25 03:00:50;;;;;;;2.25;1.4;;;;;;;14.77;95.12695;95150.58;;;;
2022/06/25 03:01:55;;;;;;;2.25;1.4;;;;;;;14.77;95.12695;95150.58;;;;
2022/06/25 03:02:55;;;;;;;2.25;1.4;;;;;;;14.77;95.12695;95150.58;;;;
2022/06/25 03:03:56;;;;;;;2.25;1.4;;;;;;;14.77;95.12695;95150.58;;;;
2022/06/25 03:04:57;;;;;;;2.25;1.4;;;;;;;14.77;95.12695;95150.58;;;;
2022/06/25 03:05:57;;;;;;;2.25;1.4;;;;;;;14.77;95.12695;95150.58;;;;
2022/06/25 03:06:58;;;;;;;2.25;1.4;;;;;;;14.77;95.12695;95150.58;;;;
2022/06/25 03:07:58;;;;;;;2.25;1.4;;;;;;;14.77;95.12695;95150.58;;;;
2022/06/25 03:08:59;;;;;;;2.25;1.4;;;;;;;14.77;95.12695;95150.58;;;;
2022/06/25 03:09:59;;;;;;;2.25;1.4;;;;;;;14.77;95.12695;95150.58;;;;
2022/06/25 03:11:00;;;;;;;2.25;1.4;;;;;;;14.77;95.12695;95150.58;;;;
2022/06/25 03:12:00;;;;;;;2.25;1.4;;;;;;;14.77;95.12695;95150.58;;;;
2022/06/25 03:13:01;;;;;;;2.25;1.4;;;;;;;14.77;95.12695;95150.58;;;;
2022/06/25 03:14:01;;;;;;;2.25;1.4;;;;;;;14.77;95.12695;95150.58;;;;
2022/06/25 03:15:03;;;;;;;2.25;1.4;;;;;;;14.77;95.12695;95150.58;;;;
2022/06/25 03:16:04;;;;;;;2.25;1.4;;;;;;;14.77;95.12695;95150.58;;;;
2022/06/25 03:17:06;;;;;;;2.25;1.4;;;;;;;14.77;95.12695;95150.58;;;;
2022/06/25 03:18:06;;;;;;;2.25;1.4;;;;;;;14.77;95.12695;95150.58;;;;
2022/06/25 03:19:07;;;;;;;2.25;1.4;;;;;;;14.77;95.12695;95150.58;;;;
2022/06/25 03:20:08;;;;;;;2.15;1.5;;;;;;;14.76;95.26465;95173.85;;;;
2022/06/25 03:21:10;;;;;;;2.15;1.5;;;;;;;14.76;95.26465;95173.85;;;;
2022/06/25 03:22:11;;;;;;;2.15;1.5;;;;;;;14.76;95.26465;95173.85;;;;
2022/06/25 03:23:11;;;;;;;2.15;1.5;;;;;;;14.76;95.26465;95173.85;;;;
2022/06/25 03:24:12;;;;;;;2.15;1.5;;;;;;;14.76;95.26465;95173.85;;;;
2022/06/25 03:25:12;;;;;;;2.15;1.5;;;;;;;14.76;95.26465;95173.85;;;;
2022/06/25 03:26:13;;;;;;;2.15;1.5;;;;;;;14.76;95.26465;95173.85;;;;
2022/06/25 03:27:13;;;;;;;2.15;1.5;;;;;;;14.76;95.26465;95173.85;;;;
2022/06/25 03:28:14;;;;;;;2.15;1.5;;;;;;;14.76;95.26465;95173.85;;;;
2022/06/25 03:29:15;;;;;;;2.15;1.5;;;;;;;14.76;95.26465;95173.85;;;;
2022/06/25 03:30:16;;;;;;;2.45;1.6;;;;;;;14.74;95.1748;95183.51;;;;
2022/06/25 03:31:16;;;;;;;2.45;1.6;;;;;;;14.74;95.1748;95183.51;;;;
2022/06/25 03:32:17;;;;;;;2.45;1.6;;;;;;;14.74;95.1748;95183.51;;;;
2022/06/25 03:33:17;;;;;;;2.45;1.6;;;;;;;14.74;95.1748;95183.51;;;;
2022/06/25 03:34:18;;;;;;;2.45;1.6;;;;;;;14.74;95.1748;95183.51;;;;
2022/06/25 03:35:19;;;;;;;2.45;1.6;;;;;;;14.74;95.1748;95183.51;;;;
2022/06/25 03:36:19;;;;;;;2.45;1.6;;;;;;;14.74;95.1748;95183.51;;;;
2022/06/25 03:37:20;;;;;;;2.45;1.6;;;;;;;14.74;95.1748;95183.51;;;;
2022/06/25 03:38:20;;;;;;;2.45;1.6;;;;;;;14.74;95.1748;95183.51;;;;
2022/06/25 03:39:20;;;;;;;2.45;1.6;;;;;;;14.74;95.1748;95183.51;;;;
2022/06/25 03:40:21;;;;;;;2.45;1.6;;;;;;;14.74;95.1748;95183.51;;;;
2022/06/25 03:41:37;;;;;;;2.1;1.8;;;;;;;14.8;95.40234;95188.81;;;;
2022/06/25 03:42:37;;;;;;;2.1;1.8;;;;;;;14.8;95.40234;95188.81;;;;
2022/06/25 03:43:38;;;;;;;2.1;1.8;;;;;;;14.8;95.40234;95188.81;;;;
2022/06/25 03:44:38;;;;;;;2.1;1.8;;;;;;;14.8;95.40234;95188.81;;;;
2022/06/25 03:45:39;;;;;;;2.1;1.8;;;;;;;14.8;95.40234;95188.81;;;;
2022/06/25 03:46:39;;;;;;;2.1;1.8;;;;;;;14.8;95.40234;95188.81;;;;
2022/06/25 03:47:40;;;;;;;2.1;1.8;;;;;;;14.8;95.40234;95188.81;;;;
2022/06/25 03:48:41;;;;;;;2.1;1.8;;;;;;;14.8;95.40234;95188.81;;;;
2022/06/25 03:49:42;;;;;;;2.1;1.8;;;;;;;14.8;95.40234;95188.81;;;;
2022/06/25 03:50:43;;;;;;;2.1;1.8;;;;;;;14.8;95.40234;95188.81;;;;
2022/06/25 03:51:43;;;;;;;1.7;1.6;;;;;;;14.82;95.29004;95188.84;;;;
2022/06/25 03:52:44;;;;;;;1.7;1.6;;;;;;;14.82;95.29004;95188.84;;;;
2022/06/25 03:53:44;;;;;;;1.7;1.6;;;;;;;14.82;95.29004;95188.84;;;;
2022/06/25 03:54:45;;;;;;;1.7;1.6;;;;;;;14.82;95.29004;95188.84;;;;
2022/06/25 03:55:45;;;;;;;1.7;1.6;;;;;;;14.82;95.29004;95188.84;;;;
2022/06/25 03:56:46;;;;;;;1.7;1.6;;;;;;;14.82;95.29004;95188.84;;;;
2022/06/25 03:57:46;;;;;;;1.7;1.6;;;;;;;14.82;95.29004;95188.84;;;;
2022/06/25 03:58:47;;;;;;;1.7;1.6;;;;;;;14.82;95.29004;95188.84;;;;
2022/06/25 03:59:48;;;;;;;1.7;1.6;;;;;;;14.82;95.29004;95188.84;;;;
2022/06/25 04:00:48;;;;;;;1.7;1.6;;;;;;;14.82;95.29004;95188.84;;;;
2022/06/25 04:01:49;;;;;;;1.7;1.6;;;;;;;14.82;95.29004;95188.84;;;;
2022/06/25 04:02:49;;;;;;;2.45;1.65;;;;;;;14.86;95.35156;95195.73;;;;
2022/06/25 04:03:50;;;;;;;2.45;1.65;;;;;;;14.86;95.35156;95195.73;;;;
2022/06/25 04:04:50;;;;;;;2.45;1.65;;;;;;;14.86;95.35156;95195.73;;;;
2022/06/25 04:05:51;;;;;;;2.45;1.65;;;;;;;14.86;95.35156;95195.73;;;;
2022/06/25 04:06:51;;;;;;;2.45;1.65;;;;;;;14.86;95.35156;95195.73;;;;
2022/06/25 04:07:52;;;;;;;2.45;1.65;;;;;;;14.86;95.35156;95195.73;;;;
2022/06/25 04:08:52;;;;;;;2.45;1.65;;;;;;;14.86;95.35156;95195.73;;;;
2022/06/25 04:09:53;;;;;;;2.45;1.65;;;;;;;14.86;95.35156;95195.73;;;;
2022/06/25 04:10:53;;;;;;;2.45;1.65;;;;;;;14.86;95.35156;95195.73;;;;
2022/06/25 04:11:54;;;;;;;2.45;1.65;;;;;;;14.86;95.35156;95195.73;;;;
2022/06/25 04:12:54;;;;;;;1.75;1.6;;;;;;;14.83;95.21387;95197.65;;;;
2022/06/25 04:13:55;;;;;;;1.75;1.6;;;;;;;14.83;95.21387;95197.65;;;;
2022/06/25 04:14:56;;;;;;;1.75;1.6;;;;;;;14.83;95.21387;95197.65;;;;
2022/06/25 04:15:56;;;;;;;1.75;1.6;;;;;;;14.83;95.21387;95197.65;;;;
2022/06/25 04:16:57;;;;;;;1.75;1.6;;;;;;;14.83;95.21387;95197.65;;;;
2022/06/25 04:17:57;;;;;;;1.75;1.6;;;;;;;14.83;95.21387;95197.65;;;;
2022/06/25 04:18:58;;;;;;;1.75;1.6;;;;;;;14.83;95.21387;95197.65;;;;
2022/06/25 04:19:59;;;;;;;1.75;1.6;;;;;;;14.83;95.21387;95197.65;;;;
2022/06/25 04:20:59;;;;;;;1.75;1.6;;;;;;;14.83;95.21387;95197.65;;;;
2022/06/25 04:22:00;;;;;;;1.75;1.6;;;;;;;14.83;95.21387;95197.65;;;;
2022/06/25 04:23:00;;;;;;;1.75;1.6;;;;;;;14.83;95.21387;95197.65;;;;
2022/06/25 04:24:01;;;;;;;1.8;1.7;;;;;;;14.93;95.45215;95213.25;;;;
2022/06/25 04:25:01;;;;;;;1.8;1.7;;;;;;;14.93;95.45215;95213.25;;;;
2022/06/25 04:26:03;;;;;;;1.8;1.7;;;;;;;14.93;95.45215;95213.25;;;;
2022/06/25 04:27:03;;;;;;;1.8;1.7;;;;;;;14.93;95.45215;95213.25;;;;
2022/06/25 04:29:09;;;;;;;1.8;1.7;;;;;;;14.93;95.45215;95213.25;;;;
2022/06/25 04:30:10;;;;;;;1.8;1.7;;;;;;;14.93;95.45215;95213.25;;;;
2022/06/25 04:31:10;;;;;;;1.8;1.7;;;;;;;14.93;95.45215;95213.25;;;;
2022/06/25 04:32:11;;;;;;;1.8;1.7;;;;;;;14.93;95.45215;95213.25;;;;
2022/06/25 04:33:12;;;;;;;1.8;1.7;;;;;;;14.93;95.45215;95213.25;;;;
2022/06/25 04:34:12;;;;;;;1.8;1.7;;;;;;;14.93;95.45215;95213.25;;;;
2022/06/25 04:35:13;;;;;;;3.3;1.6;;;;;;;15.05;95.41406;95216.27;;;;
2022/06/25 04:36:13;;;;;;;3.3;1.6;;;;;;;15.05;95.41406;95216.27;;;;
2022/06/25 04:37:13;;;;;;;3.3;1.6;;;;;;;15.05;95.41406;95216.27;;;;
2022/06/25 04:38:14;;;;;;;3.3;1.6;;;;;;;15.05;95.41406;95216.27;;;;
2022/06/25 04:39:14;;;;;;;3.3;1.6;;;;;;;15.05;95.41406;95216.27;;;;
2022/06/25 04:40:15;;;;;;;3.3;1.6;;;;;;;15.05;95.41406;95216.27;;;;
2022/06/25 04:41:16;;;;;;;3.3;1.6;;;;;;;15.05;95.41406;95216.27;;;;
2022/06/25 04:42:17;;;;;;;3.3;1.6;;;;;;;15.05;95.41406;95216.27;;;;
2022/06/25 04:43:17;;;;;;;3.3;1.6;;;;;;;15.05;95.41406;95216.27;;;;
2022/06/25 04:44:17;;;;;;;3.3;1.6;;;;;;;15.05;95.41406;95216.27;;;;
2022/06/25 04:45:18;;;;;;;1.9;1.55;;;;;;;15.38;95.625;95215.88;;;;
2022/06/25 04:46:18;;;;;;;1.9;1.55;;;;;;;15.38;95.625;95215.88;;;;
2022/06/25 04:47:19;;;;;;;1.9;1.55;;;;;;;15.38;95.625;95215.88;;;;
2022/06/25 04:48:19;;;;;;;1.9;1.55;;;;;;;15.38;95.625;95215.88;;;;
2022/06/25 04:49:20;;;;;;;1.9;1.55;;;;;;;15.38;95.625;95215.88;;;;
2022/06/25 04:50:20;;;;;;;1.9;1.55;;;;;;;15.38;95.625;95215.88;;;;
2022/06/25 04:51:21;;;;;;;1.9;1.55;;;;;;;15.38;95.625;95215.88;;;;
2022/06/25 04:52:21;;;;;;;1.9;1.55;;;;;;;15.38;95.625;95215.88;;;;
2022/06/25 04:53:22;;;;;;;1.9;1.55;;;;;;;15.38;95.625;95215.88;;;;
2022/06/25 04:54:22;;;;;;;1.9;1.55;;;;;;;15.38;95.625;95215.88;;;;
2022/06/25 04:55:23;;;;;;;1.9;1.55;;;;;;;15.38;95.625;95215.88;;;;
2022/06/25 04:56:23;;;;;;;2.1;1.6;;;;;;;15.76;95.48926;95219.92;;;;
2022/06/25 04:57:26;;;;;;;2.1;1.6;;;;;;;15.76;95.48926;95219.92;;;;
2022/06/25 04:58:26;;;;;;;2.1;1.6;;;;;;;15.76;95.48926;95219.92;;;;
2022/06/25 04:59:27;;;;;;;2.1;1.6;;;;;;;15.76;95.48926;95219.92;;;;
2022/06/25 05:00:27;;;;;;;2.1;1.6;;;;;;;15.76;95.48926;95219.92;;;;
2022/06/25 05:01:28;;;;;;;2.1;1.6;;;;;;;15.76;95.48926;95219.92;;;;
2022/06/25 05:02:28;;;;;;;2.1;1.6;;;;;;;15.76;95.48926;95219.92;;;;
2022/06/25 05:03:29;;;;;;;2.1;1.6;;;;;;;15.76;95.48926;95219.92;;;;
2022/06/25 05:04:29;;;;;;;2.1;1.6;;;;;;;15.76;95.48926;95219.92;;;;
2022/06/25 05:05:30;;;;;;;2.1;1.6;;;;;;;15.76;95.48926;95219.92;;;;
2022/06/25 05:06:31;;;;;;;2.35;1.7;;;;;;;16.28;95.41992;95237.17;;;;
2022/06/25 05:07:31;;;;;;;2.35;1.7;;;;;;;16.28;95.41992;95237.17;;;;
2022/06/25 05:08:32;;;;;;;2.35;1.7;;;;;;;16.28;95.41992;95237.17;;;;
2022/06/25 05:09:32;;;;;;;2.35;1.7;;;;;;;16.28;95.41992;95237.17;;;;
2022/06/25 05:10:33;;;;;;;2.35;1.7;;;;;;;16.28;95.41992;95237.17;;;;
2022/06/25 05:11:33;;;;;;;2.35;1.7;;;;;;;16.28;95.41992;95237.17;;;;
2022/06/25 05:13:39;;;;;;;2.35;1.7;;;;;;;16.28;95.41992;95237.17;;;;
2022/06/25 05:14:39;;;;;;;2.35;1.7;;;;;;;16.28;95.41992;95237.17;;;;
2022/06/25 05:15:40;;;;;;;2.35;1.7;;;;;;;16.28;95.41992;95237.17;;;;
2022/06/25 05:16:42;;;;;;;2.35;1.7;;;;;;;16.28;95.41992;95237.17;;;;
2022/06/25 05:17:43;;;;;;;2.4;1.6;;;;;;;16.69;95.00586;95244.75;;;;
2022/06/25 05:18:43;;;;;;;2.4;1.6;;;;;;;16.69;95.00586;95244.75;;;;
2022/06/25 05:19:44;;;;;;;2.4;1.6;;;;;;;16.69;95.00586;95244.75;;;;
2022/06/25 05:20:45;;;;;;;2.4;1.6;;;;;;;16.69;95.00586;95244.75;;;;
2022/06/25 05:21:45;;;;;;;2.4;1.6;;;;;;;16.69;95.00586;95244.75;;;;
2022/06/25 05:22:47;;;;;;;2.4;1.6;;;;;;;16.69;95.00586;95244.75;;;;
2022/06/25 05:23:47;;;;;;;2.4;1.6;;;;;;;16.69;95.00586;95244.75;;;;
2022/06/25 05:24:48;;;;;;;2.4;1.6;;;;;;;16.69;95.00586;95244.75;;;;
2022/06/25 05:25:48;;;;;;;2.4;1.6;;;;;;;16.69;95.00586;95244.75;;;;
2022/06/25 05:26:49;;;;;;;2.4;1.6;;;;;;;16.69;95.00586;95244.75;;;;
2022/06/25 05:27:49;;;;;;;2.75;1.3;;;;;;;17;94.62891;95249.77;;;;
2022/06/25 05:28:50;;;;;;;2.75;1.3;;;;;;;17;94.62891;95249.77;;;;
2022/06/25 05:29:50;;;;;;;2.75;1.3;;;;;;;17;94.62891;95249.77;;;;
2022/06/25 05:30:51;;;;;;;2.75;1.3;;;;;;;17;94.62891;95249.77;;;;
2022/06/25 05:31:51;;;;;;;2.75;1.3;;;;;;;17;94.62891;95249.77;;;;
2022/06/25 05:32:51;;;;;;;2.75;1.3;;;;;;;17;94.62891;95249.77;;;;
2022/06/25 05:33:52;;;;;;;2.75;1.3;;;;;;;17;94.62891;95249.77;;;;
2022/06/25 05:34:54;;;;;;;2.75;1.3;;;;;;;17;94.62891;95249.77;;;;
2022/06/25 05:35:55;;;;;;;2.75;1.3;;;;;;;17;94.62891;95249.77;;;;
2022/06/25 05:36:55;;;;;;;2.75;1.3;;;;;;;17;94.62891;95249.77;;;;
2022/06/25 05:37:56;;;;;;;2.75;1.3;;;;;;;17;94.62891;95249.77;;;;
2022/06/25 05:38:56;;;;;;;4.649999;2.4;;;;;;;17.17;94.13379;95246.44;;;;
2022/06/25 05:39:57;;;;;;;4.649999;2.4;;;;;;;17.17;94.13379;95246.44;;;;
2022/06/25 05:40:57;;;;;;;4.649999;2.4;;;;;;;17.17;94.13379;95246.44;;;;
2022/06/25 05:41:58;;;;;;;4.649999;2.4;;;;;;;17.17;94.13379;95246.44;;;;
2022/06/25 05:42:58;;;;;;;4.649999;2.4;;;;;;;17.17;94.13379;95246.44;;;;
2022/06/25 05:43:58;;;;;;;4.649999;2.4;;;;;;;17.17;94.13379;95246.44;;;;
2022/06/25 05:44:59;;;;;;;4.649999;2.4;;;;;;;17.17;94.13379;95246.44;;;;
2022/06/25 05:45:59;;;;;;;4.649999;2.4;;;;;;;17.17;94.13379;95246.44;;;;
2022/06/25 05:47:00;;;;;;;4.649999;2.4;;;;;;;17.17;94.13379;95246.44;;;;
2022/06/25 05:48:00;;;;;;;4.649999;2.4;;;;;;;17.17;94.13379;95246.44;;;;
2022/06/25 05:49:01;;;;;;;2;1.55;;;;;;;17.49;93.99219;95250.51;;;;
2022/06/25 05:50:02;;;;;;;2;1.55;;;;;;;17.49;93.99219;95250.51;;;;
2022/06/25 05:51:03;;;;;;;2;1.55;;;;;;;17.49;93.99219;95250.51;;;;
2022/06/25 05:52:04;;;;;;;2;1.55;;;;;;;17.49;93.99219;95250.51;;;;
2022/06/25 05:53:05;;;;;;;2;1.55;;;;;;;17.49;93.99219;95250.51;;;;
2022/06/25 05:54:06;;;;;;;2;1.55;;;;;;;17.49;93.99219;95250.51;;;;
2022/06/25 05:55:06;;;;;;;2;1.55;;;;;;;17.49;93.99219;95250.51;;;;
2022/06/25 05:56:07;;;;;;;2;1.55;;;;;;;17.49;93.99219;95250.51;;;;
2022/06/25 05:57:07;;;;;;;2;1.55;;;;;;;17.49;93.99219;95250.51;;;;
2022/06/25 05:58:08;;;;;;;2;1.55;;;;;;;17.49;93.99219;95250.51;;;;
2022/06/25 05:59:08;;;;;;;2;1.55;;;;;;;17.49;93.99219;95250.51;;;;
2022/06/25 06:00:09;;;;;;;1.75;1.3;;;;;;;17.84;93.83887;95253.44;;;;
2022/06/25 06:01:10;;;;;;;1.75;1.3;;;;;;;17.84;93.83887;95253.44;;;;
2022/06/25 06:02:11;;;;;;;1.75;1.3;;;;;;;17.84;93.83887;95253.44;;;;
2022/06/25 06:03:12;;;;;;;1.75;1.3;;;;;;;17.84;93.83887;95253.44;;;;
2022/06/25 06:04:12;;;;;;;1.75;1.3;;;;;;;17.84;93.83887;95253.44;;;;
2022/06/25 06:05:13;;;;;;;1.75;1.3;;;;;;;17.84;93.83887;95253.44;;;;
2022/06/25 06:06:13;;;;;;;1.75;1.3;;;;;;;17.84;93.83887;95253.44;;;;
2022/06/25 06:07:14;;;;;;;1.75;1.3;;;;;;;17.84;93.83887;95253.44;;;;